Time;durP1;ratioP1;P1;durP2;ratioP2;P2;SDS_P1;SDS_P2;PMS_P1;PMS_P2;Temp;Humidity;BMP_temperature;BMP_pressure;BME280_temperature;BME280_humidity;BME280_pressure;Samples;Min_cycle;Max_cycle;Signal;HPM_P1;HPM_P2
2021/05/01 00:00:06;;;;;;;13.53;8.38;;;;;;;12.07;87.45;99112.53;1698965;83;21544;-78
2021/05/01 00:02:35;;;;;;;11.18;7.65;;;;;;;12.05;87.46;99117.02;1684631;84;21153;-76
2021/05/01 00:05:03;;;;;;;11.95;7.75;;;;;;;12.05;87.30;99120.34;1672051;85;21536;-77
2021/05/01 00:07:31;;;;;;;13.43;7.78;;;;;;;12.02;86.92;99110.80;1672913;85;21205;-77
2021/05/01 00:09:58;;;;;;;10.18;7.28;;;;;;;11.98;86.57;99109.03;1680211;84;21188;-78
2021/05/01 00:12:26;;;;;;;10.93;7.55;;;;;;;11.93;86.24;99103.16;1700472;83;21640;-77
2021/05/01 00:14:53;;;;;;;10.00;7.30;;;;;;;11.87;86.13;99101.77;1677902;84;21578;-77
2021/05/01 00:17:21;;;;;;;12.55;7.95;;;;;;;11.79;86.08;99097.36;1698950;83;21656;-77
2021/05/01 00:19:49;;;;;;;10.95;7.45;;;;;;;11.74;86.16;99098.94;1684547;84;21445;-78
2021/05/01 00:22:16;;;;;;;12.00;7.30;;;;;;;11.69;86.14;99096.39;1671685;85;21135;-76
2021/05/01 00:24:44;;;;;;;12.45;7.53;;;;;;;11.65;86.10;99089.95;1671597;85;21138;-79
2021/05/01 00:27:12;;;;;;;12.53;8.03;;;;;;;11.60;86.01;99092.91;1669448;85;21182;-76
2021/05/01 00:29:39;;;;;;;14.25;9.13;;;;;;;11.53;85.83;99101.14;1671248;85;21154;-76
2021/05/01 00:32:07;;;;;;;9.35;7.53;;;;;;;11.46;85.69;99102.27;1679997;84;22791;-76
2021/05/01 00:34:34;;;;;;;11.12;7.65;;;;;;;11.41;85.72;99103.84;1700551;83;21139;-77
2021/05/01 00:37:02;;;;;;;11.70;8.15;;;;;;;11.35;85.71;99103.79;1683350;84;21152;-76
2021/05/01 00:39:30;;;;;;;11.35;7.85;;;;;;;11.29;85.65;99108.72;1697513;83;21183;-75
2021/05/01 00:41:58;;;;;;;15.03;9.25;;;;;;;11.25;85.64;99124.30;1682893;84;21118;-78
2021/05/01 00:44:25;;;;;;;13.93;9.70;;;;;;;11.18;85.57;99118.75;1667731;85;21962;-77
2021/05/01 00:46:52;;;;;;;7.17;5.45;;;;;;;11.14;85.62;99117.80;1678217;84;21208;-77
2021/05/01 00:49:20;;;;;;;9.03;4.83;;;;;;;11.09;85.62;99123.50;1696842;83;21119;-76
2021/05/01 00:51:47;;;;;;;9.75;6.75;;;;;;;11.05;85.53;99128.08;1681717;84;21140;-77
2021/05/01 00:54:15;;;;;;;8.98;6.67;;;;;;;10.98;85.39;99127.78;1676544;84;21128;-77
2021/05/01 00:56:43;;;;;;;9.00;6.15;;;;;;;10.90;85.47;99119.81;1668163;84;21366;-78
2021/05/01 00:59:10;;;;;;;10.50;7.90;;;;;;;10.84;85.65;99126.07;1677623;84;21156;-77
2021/05/01 01:01:47;;;;;;;12.37;7.58;;;;;;;10.81;85.78;99125.36;1697082;83;21127;-78
2021/05/01 01:04:08;;;;;;;8.75;5.80;;;;;;;10.77;85.87;99127.97;1680814;84;21612;-76
2021/05/01 01:06:36;;;;;;;8.70;6.30;;;;;;;10.73;85.87;99127.59;1698097;83;21620;-77
2021/05/01 01:09:04;;;;;;;10.68;7.35;;;;;;;10.71;85.96;99124.58;1681182;84;21321;-76
2021/05/01 01:11:32;;;;;;;11.68;8.43;;;;;;;10.71;86.08;99129.30;1695048;83;21174;-77
2021/05/01 01:14:01;;;;;;;11.22;7.45;;;;;;;10.69;86.11;99132.39;1680084;84;21192;-76
2021/05/01 01:16:29;;;;;;;11.43;8.23;;;;;;;10.68;86.15;99123.08;1697919;83;21235;-78
2021/05/01 01:18:58;;;;;;;13.38;8.70;;;;;;;10.66;86.20;99126.73;1680079;84;21645;-77
2021/05/01 01:21:26;;;;;;;11.80;9.00;;;;;;;10.65;86.17;99142.44;1695738;83;22361;-77
2021/05/01 01:23:54;;;;;;;11.90;8.98;;;;;;;10.62;86.01;99140.34;1682197;84;21145;-78
2021/05/01 01:26:22;;;;;;;10.18;8.05;;;;;;;10.59;85.92;99142.39;1696534;83;21155;-76
2021/05/01 01:28:50;;;;;;;14.25;8.75;;;;;;;10.55;85.86;99140.04;1679471;84;21208;-74
2021/05/01 01:31:18;;;;;;;10.70;7.97;;;;;;;10.52;85.90;99140.70;1697339;83;21140;-77
2021/05/01 01:33:45;;;;;;;10.32;8.23;;;;;;;10.51;86.02;99147.36;1681630;84;21481;-75
2021/05/01 01:36:13;;;;;;;13.85;10.18;;;;;;;10.49;86.00;99160.65;1694940;83;21223;-77
2021/05/01 01:38:40;;;;;;;12.35;9.78;;;;;;;10.47;85.98;99154.87;1681107;84;21097;-77
2021/05/01 01:41:08;;;;;;;14.98;10.72;;;;;;;10.45;85.94;99154.95;1667134;85;21153;-77
2021/05/01 01:43:37;;;;;;;15.43;11.55;;;;;;;10.43;85.89;99159.97;1681657;84;21104;-77
2021/05/01 01:46:05;;;;;;;18.17;11.55;;;;;;;10.41;85.91;99161.68;1666402;83;21445;-76
2021/05/01 01:48:32;;;;;;;16.48;9.30;;;;;;;10.38;85.95;99169.23;1677873;84;21276;-76
2021/05/01 01:51:00;;;;;;;11.73;8.98;;;;;;;10.34;85.82;99168.25;1696936;83;21154;-78
2021/05/01 01:53:28;;;;;;;18.67;11.33;;;;;;;10.30;85.78;99172.81;1682024;84;21114;-77
2021/05/01 01:55:55;;;;;;;12.30;9.28;;;;;;;10.25;85.79;99166.09;1677974;85;21147;-76
2021/05/01 01:58:24;;;;;;;15.78;10.90;;;;;;;10.19;85.86;99168.20;1695932;83;21418;-77
2021/05/01 02:00:52;;;;;;;15.05;10.35;;;;;;;10.13;85.93;99177.21;1682184;84;21156;-76
2021/05/01 02:03:19;;;;;;;13.70;9.50;;;;;;;10.11;86.18;99179.47;1668842;85;21199;-77
2021/05/01 02:05:47;;;;;;;16.42;11.50;;;;;;;10.10;86.28;99187.47;1669422;85;21210;-75
2021/05/01 02:08:18;;;;;;;16.48;11.00;;;;;;;10.08;86.17;99187.01;1680923;84;21100;-77
2021/05/01 02:10:45;;;;;;;17.35;12.05;;;;;;;10.07;86.00;99189.50;1667885;85;21676;-76
2021/05/01 02:13:12;;;;;;;19.55;11.93;;;;;;;10.02;85.88;99191.86;1677917;84;21164;-76
2021/05/01 02:15:40;;;;;;;15.63;10.23;;;;;;;9.99;85.80;99193.89;1696931;83;21163;-75
2021/05/01 02:18:07;;;;;;;15.78;9.60;;;;;;;9.97;85.83;99201.09;1681852;84;21650;-76
2021/05/01 02:20:36;;;;;;;14.00;9.83;;;;;;;9.97;85.85;99200.28;1698953;83;21174;-75
2021/05/01 02:23:05;;;;;;;13.03;9.80;;;;;;;9.93;85.78;99202.86;1680605;84;21379;-77
2021/05/01 02:25:33;;;;;;;13.28;9.78;;;;;;;9.90;85.67;99201.32;1697942;83;21178;-76
2021/05/01 02:28:00;;;;;;;13.53;10.00;;;;;;;9.86;85.64;99200.59;1680640;84;21157;-76
2021/05/01 02:30:28;;;;;;;13.95;10.30;;;;;;;9.84;85.71;99199.31;1695352;83;21139;-77
2021/05/01 02:32:57;;;;;;;24.80;12.03;;;;;;;9.81;85.74;99204.88;1679641;84;21162;-76
2021/05/01 02:35:29;;;;;;;12.98;9.03;;;;;;;9.80;85.71;99202.45;1685282;84;21438;-76
2021/05/01 02:37:57;;;;;;;12.78;9.10;;;;;;;9.77;85.79;99206.67;1687156;84;21158;-75
2021/05/01 02:40:24;;;;;;;11.38;8.93;;;;;;;9.78;85.90;99208.28;1696953;83;21158;-75
2021/05/01 02:42:52;;;;;;;11.25;8.65;;;;;;;9.78;86.08;99208.84;1670773;84;21196;-76
2021/05/01 02:45:20;;;;;;;10.08;8.13;;;;;;;9.79;86.12;99209.10;1681771;83;21147;-78
2021/05/01 02:47:48;;;;;;;13.00;8.38;;;;;;;9.79;86.10;99210.48;1682430;84;21389;-77
2021/05/01 02:50:16;;;;;;;10.45;7.78;;;;;;;9.78;86.05;99210.22;1678707;84;21107;-77
2021/05/01 02:52:44;;;;;;;10.78;7.80;;;;;;;9.77;85.96;99213.55;1681694;84;21140;-77
2021/05/01 02:55:11;;;;;;;12.43;8.88;;;;;;;9.77;85.95;99223.74;1679906;84;21150;-77
2021/05/01 02:57:38;;;;;;;12.28;8.83;;;;;;;9.76;85.88;99224.88;1682095;84;21105;-79
2021/05/01 03:00:09;;;;;;;12.00;9.33;;;;;;;9.74;85.93;99223.83;1652989;86;21863;-79
2021/05/01 03:02:36;;;;;;;10.10;8.05;;;;;;;9.71;85.83;99223.08;1657913;84;21204;-79
2021/05/01 03:05:05;;;;;;;10.03;7.33;;;;;;;9.68;85.86;99220.41;1653484;86;21138;-78
2021/05/01 03:07:35;;;;;;;10.00;8.00;;;;;;;9.65;85.81;99222.44;1655130;86;21150;-78
2021/05/01 03:10:09;;;;;;;9.55;7.85;;;;;;;9.64;85.84;99230.42;1653853;86;21165;-79
2021/05/01 03:12:37;;;;;;;11.78;7.33;;;;;;;9.63;85.83;99232.95;1680087;84;22719;-78
2021/05/01 03:15:05;;;;;;;9.55;6.95;;;;;;;9.61;85.77;99242.89;1680974;84;21628;-77
2021/05/01 03:17:32;;;;;;;10.28;6.05;;;;;;;9.57;85.52;99245.23;1682842;84;21220;-77
2021/05/01 03:20:02;;;;;;;8.95;6.35;;;;;;;9.50;85.58;99237.45;1654001;86;21218;-77
2021/05/01 03:22:30;;;;;;;7.42;6.15;;;;;;;9.48;85.66;99235.00;1655359;86;21210;-77
2021/05/01 03:24:57;;;;;;;9.18;6.95;;;;;;;9.50;85.91;99246.50;1653143;86;21349;-77
2021/05/01 03:27:25;;;;;;;10.03;7.85;;;;;;;9.53;86.05;99254.69;1653391;86;21240;-77
2021/05/01 03:29:52;;;;;;;11.63;8.38;;;;;;;9.56;86.10;99247.73;1678720;84;21176;-77
2021/05/01 03:32:19;;;;;;;13.20;9.33;;;;;;;9.59;86.30;99254.78;1682147;84;21151;-76
2021/05/01 03:34:47;;;;;;;11.45;8.83;;;;;;;9.64;86.46;99263.44;1682487;84;21154;-76
2021/05/01 03:37:15;;;;;;;10.58;7.60;;;;;;;9.68;86.48;99255.36;1687476;83;21180;-75
2021/05/01 03:39:42;;;;;;;13.48;8.85;;;;;;;9.71;86.61;99261.03;1681675;84;21137;-76
2021/05/01 03:42:10;;;;;;;12.75;9.43;;;;;;;9.76;86.85;99266.16;1682497;84;21127;-76
2021/05/01 03:44:37;;;;;;;12.20;8.88;;;;;;;9.83;87.08;99263.72;1669937;85;21439;-77
2021/05/01 03:47:05;;;;;;;10.65;8.78;;;;;;;9.90;87.26;99269.56;1650429;86;21102;-79
2021/05/01 03:49:34;;;;;;;13.83;10.80;;;;;;;9.97;87.34;99269.91;1665727;85;21812;-78
2021/05/01 03:52:03;;;;;;;16.93;13.72;;;;;;;10.03;87.47;99268.38;1667182;85;21114;-77
2021/05/01 03:54:30;;;;;;;19.20;13.53;;;;;;;10.12;87.60;99279.40;1668330;85;21233;-76
2021/05/01 03:56:57;;;;;;;18.10;13.65;;;;;;;10.20;87.77;99283.51;1669100;85;21618;-75
2021/05/01 03:59:25;;;;;;;15.23;12.55;;;;;;;10.29;87.80;99288.20;1666463;85;21122;-77
2021/05/01 04:01:53;;;;;;;15.38;11.18;;;;;;;10.37;87.81;99283.29;1649889;86;21799;-78
2021/05/01 04:04:20;;;;;;;23.20;15.65;;;;;;;10.45;88.05;99294.87;1650184;86;21166;-77
2021/05/01 04:06:47;;;;;;;22.65;16.02;;;;;;;10.57;88.54;99297.55;1650381;86;21603;-76
2021/05/01 04:09:15;;;;;;;23.70;18.10;;;;;;;10.68;88.81;99296.08;1648269;85;21171;-76
2021/05/01 04:11:42;;;;;;;21.23;16.25;;;;;;;10.81;88.86;99302.56;1649802;86;21107;-77
2021/05/01 04:14:10;;;;;;;24.87;18.15;;;;;;;10.94;88.75;99299.36;1642547;86;21367;-76
2021/05/01 04:16:38;;;;;;;24.98;17.12;;;;;;;11.04;88.58;99307.02;1687197;84;21195;-75
2021/05/01 04:19:05;;;;;;;20.52;13.98;;;;;;;11.11;88.73;99311.47;1647727;86;21122;-77
2021/05/01 04:21:33;;;;;;;22.73;14.28;;;;;;;11.21;89.18;99313.06;1649140;85;21170;-76
2021/05/01 04:24:00;;;;;;;23.05;15.83;;;;;;;11.32;89.37;99308.00;1658608;86;21129;-75
2021/05/01 04:26:27;;;;;;;21.75;15.50;;;;;;;11.42;89.61;99307.64;1664750;86;21372;-77
2021/05/01 04:28:56;;;;;;;22.90;15.70;;;;;;;11.52;89.85;99305.08;1668829;85;21575;-76
2021/05/01 04:31:24;;;;;;;23.62;16.82;;;;;;;11.62;89.92;99306.65;1650507;86;21592;-75
2021/05/01 04:33:52;;;;;;;27.00;16.35;;;;;;;11.68;89.88;99299.81;1643589;86;21612;-75
2021/05/01 04:36:20;;;;;;;20.52;15.60;;;;;;;11.75;90.07;99302.05;1658667;86;21115;-76
2021/05/01 04:38:47;;;;;;;23.38;16.42;;;;;;;11.85;90.17;99304.99;1672106;84;21371;-77
2021/05/01 04:41:14;;;;;;;23.35;16.60;;;;;;;11.92;90.20;99306.63;1677377;85;21193;-77
2021/05/01 04:43:44;;;;;;;22.58;15.48;;;;;;;12.00;90.37;99313.83;1648393;86;21151;-77
2021/05/01 04:46:17;;;;;;;24.30;14.03;;;;;;;12.08;90.31;99317.69;1668690;85;21394;-77
2021/05/01 04:48:44;;;;;;;20.57;15.05;;;;;;;12.14;90.25;99325.47;1678529;84;21151;-77
2021/05/01 04:51:13;;;;;;;18.62;14.60;;;;;;;12.21;90.12;99315.83;1697770;83;21162;-76
2021/05/01 04:53:41;;;;;;;22.52;16.32;;;;;;;12.22;90.01;99314.67;1704220;83;21190;-76
2021/05/01 04:56:08;;;;;;;20.52;14.75;;;;;;;12.23;90.21;99309.41;1709960;83;21171;-76
2021/05/01 04:58:36;;;;;;;21.65;16.02;;;;;;;12.29;90.66;99308.05;1679719;84;21142;-76
2021/05/01 05:01:04;;;;;;;22.25;15.68;;;;;;;12.39;90.92;99309.59;1687414;84;21148;-76
2021/05/01 05:03:31;;;;;;;22.45;15.85;;;;;;;12.51;91.00;99308.28;1703763;83;21375;-75
2021/05/01 05:05:59;;;;;;;19.57;13.55;;;;;;;12.60;90.73;99307.39;1678651;84;21148;-76
2021/05/01 05:08:26;;;;;;;23.67;14.45;;;;;;;12.70;90.77;99306.16;1675830;85;21106;-76
2021/05/01 05:10:55;;;;;;;23.22;15.55;;;;;;;12.78;90.64;99307.46;1674912;85;21177;-75
2021/05/01 05:13:26;;;;;;;23.38;13.55;;;;;;;12.89;90.44;99307.04;1666641;85;21156;-77
2021/05/01 05:15:53;;;;;;;21.45;15.23;;;;;;;12.99;90.36;99305.23;1679249;84;22812;-76
2021/05/01 05:18:21;;;;;;;21.35;15.32;;;;;;;13.10;90.42;99305.58;1686915;83;21186;-77
2021/05/01 05:20:49;;;;;;;18.62;12.90;;;;;;;13.21;90.35;99312.06;1678670;84;21597;-77
2021/05/01 05:23:16;;;;;;;18.92;13.95;;;;;;;13.32;90.10;99313.81;1688807;84;21129;-78
2021/05/01 05:25:43;;;;;;;23.50;15.43;;;;;;;13.40;89.76;99310.13;1687144;84;21145;-78
2021/05/01 05:28:11;;;;;;;21.15;15.65;;;;;;;13.50;89.48;99307.48;1703839;83;21283;-76
2021/05/01 05:30:40;;;;;;;16.12;12.80;;;;;;;13.59;88.90;99304.64;1686082;83;21161;-78
2021/05/01 05:33:08;;;;;;;21.93;14.87;;;;;;;13.66;88.51;99306.83;1675886;85;21141;-78
2021/05/01 05:35:35;;;;;;;24.32;15.03;;;;;;;13.74;88.25;99312.82;1679595;84;21132;-76
2021/05/01 05:38:03;;;;;;;25.23;13.90;;;;;;;13.81;87.92;99311.67;1685009;85;21189;-76
2021/05/01 05:40:34;;;;;;;18.48;14.55;;;;;;;13.89;87.66;99310.52;1687982;83;21830;-79
2021/05/01 05:43:02;;;;;;;18.67;13.13;;;;;;;13.96;87.47;99310.16;1704069;83;21200;-75
2021/05/01 05:45:31;;;;;;;23.20;13.40;;;;;;;14.05;87.18;99312.80;1701896;83;21154;-77
2021/05/01 05:47:59;;;;;;;26.52;19.75;;;;;;;14.11;86.77;99312.78;1694737;83;21189;-76
2021/05/01 05:50:26;;;;;;;25.57;16.45;;;;;;;14.16;86.72;99309.55;1682323;85;21151;-76
2021/05/01 05:52:54;;;;;;;17.73;13.72;;;;;;;14.26;86.76;99317.38;1665784;85;22656;-77
2021/05/01 05:55:21;;;;;;;24.00;15.13;;;;;;;14.33;86.09;99318.96;1675673;84;21305;-76
2021/05/01 05:57:53;;;;;;;19.92;14.45;;;;;;;14.43;86.37;99323.80;1701101;83;21159;-78
2021/05/01 06:00:22;;;;;;;17.57;14.13;;;;;;;14.54;86.01;99319.36;1686279;84;21145;-76
2021/05/01 06:02:52;;;;;;;19.85;14.38;;;;;;;14.65;85.54;99325.80;1674327;85;21138;-77
2021/05/01 06:05:31;;;;;;;21.37;13.62;;;;;;;14.74;85.65;99313.95;1682678;84;21448;-77
2021/05/01 06:08:05;;;;;;;19.60;14.25;;;;;;;14.84;84.55;99323.79;1671251;84;21674;-75
2021/05/01 06:10:33;;;;;;;18.77;13.10;;;;;;;14.91;84.49;99328.13;1691928;84;21487;-76
2021/05/01 06:13:03;;;;;;;22.07;14.93;;;;;;;14.98;83.62;99326.12;1687152;84;21153;-76
2021/05/01 06:15:32;;;;;;;18.85;13.28;;;;;;;15.03;83.21;99330.03;1689842;84;21151;-76
2021/05/01 06:18:00;;;;;;;20.37;14.40;;;;;;;15.08;83.00;99331.16;1677272;84;21619;-75
2021/05/01 06:20:29;;;;;;;17.50;14.20;;;;;;;15.15;82.97;99336.09;1684017;84;21149;-77
2021/05/01 06:22:59;;;;;;;16.65;12.73;;;;;;;15.25;83.04;99327.81;1680049;84;21122;-76
2021/05/01 06:25:27;;;;;;;16.37;12.78;;;;;;;15.36;82.60;99324.52;1682688;84;21662;-75
2021/05/01 06:27:55;;;;;;;18.40;13.58;;;;;;;15.42;81.85;99321.11;1689566;84;21165;-77
2021/05/01 06:30:23;;;;;;;22.62;13.45;;;;;;;15.42;81.46;99328.05;1687860;84;21812;-76
2021/05/01 06:32:51;;;;;;;20.68;14.15;;;;;;;15.47;80.83;99332.55;1682243;84;21592;-77
2021/05/01 06:35:20;;;;;;;19.23;14.80;;;;;;;15.55;81.02;99336.30;1694865;83;21126;-77
2021/05/01 06:37:50;;;;;;;21.42;14.28;;;;;;;15.66;80.82;99343.52;1673062;84;21128;-78
2021/05/01 06:40:20;;;;;;;19.55;14.60;;;;;;;15.73;80.18;99344.28;1671619;84;21193;-78
2021/05/01 06:43:01;;;;;;;22.13;14.30;;;;;;;15.82;79.67;99355.99;1693471;83;21809;-78
2021/05/01 06:45:28;;;;;;;23.05;13.60;;;;;;;15.89;79.43;99345.63;1663376;85;21129;-77
2021/05/01 06:48:04;;;;;;;24.05;14.45;;;;;;;15.97;79.07;99345.23;1666007;86;21142;-76
2021/05/01 06:50:35;;;;;;;22.73;14.40;;;;;;;16.06;78.83;99355.02;1675464;84;21156;-76
2021/05/01 06:53:03;;;;;;;21.90;13.55;;;;;;;16.16;79.10;99347.27;1663885;86;21160;-77
2021/05/01 06:55:32;;;;;;;19.05;13.20;;;;;;;16.20;77.65;99359.86;1675821;84;22191;-78
2021/05/01 06:58:01;;;;;;;18.45;13.22;;;;;;;16.23;77.81;99357.16;1688056;84;21134;-78
2021/05/01 07:00:29;;;;;;;20.90;13.83;;;;;;;16.34;77.78;99363.55;1690922;84;21180;-78
2021/05/01 07:03:09;;;;;;;19.17;14.25;;;;;;;16.43;77.05;99351.63;1690044;84;21154;-76
2021/05/01 07:05:37;;;;;;;18.35;13.13;;;;;;;16.53;76.94;99349.66;1673126;84;21216;-77
2021/05/01 07:08:06;;;;;;;21.80;13.93;;;;;;;16.65;76.43;99352.09;1672475;84;21367;-77
2021/05/01 07:10:33;;;;;;;15.98;12.47;;;;;;;16.75;74.52;99360.44;1690824;83;21221;-78
2021/05/01 07:13:01;;;;;;;17.20;13.35;;;;;;;16.75;73.90;99356.27;1675828;84;21558;-79
2021/05/01 07:15:29;;;;;;;17.80;12.45;;;;;;;16.77;73.64;99352.52;1662573;84;21162;-80
2021/05/01 07:17:57;;;;;;;17.52;13.18;;;;;;;16.83;74.26;99355.81;1646592;84;21126;-79
2021/05/01 07:20:25;;;;;;;13.50;10.53;;;;;;;16.94;73.62;99349.86;1659834;86;21385;-79
2021/05/01 07:22:54;;;;;;;13.85;10.55;;;;;;;17.04;71.67;99345.70;1675407;84;21721;-78
2021/05/01 07:25:23;;;;;;;16.80;10.53;;;;;;;17.10;70.19;99352.59;1687672;84;21146;-79
2021/05/01 07:28:09;;;;;;;13.85;9.68;;;;;;;17.16;67.48;99347.55;1690377;84;21145;-77
2021/05/01 07:30:41;;;;;;;13.00;8.45;;;;;;;17.18;68.02;99346.56;1690101;84;21134;-77
2021/05/01 07:33:29;;;;;;;12.60;7.53;;;;;;;17.21;65.39;99350.02;1674352;84;21378;-77
2021/05/01 07:36:02;;;;;;;11.50;7.87;;;;;;;17.27;65.27;99349.11;1661863;86;21178;-78
2021/05/01 07:38:31;;;;;;;11.30;7.47;;;;;;;17.39;63.76;99346.73;1673700;84;21168;-77
2021/05/01 07:41:00;;;;;;;9.28;5.15;;;;;;;17.46;60.08;99345.48;1656393;86;21110;-77
2021/05/01 07:43:31;;;;;;;13.80;6.08;;;;;;;17.50;58.68;99342.76;1659710;85;21131;-78
2021/05/01 07:46:06;;;;;;;9.15;5.80;;;;;;;17.54;57.25;99335.86;1687785;84;21391;-77
2021/05/01 07:48:34;;;;;;;8.85;6.87;;;;;;;17.58;58.13;99345.06;1688050;83;21742;-78
2021/05/01 07:51:02;;;;;;;8.65;4.65;;;;;;;17.64;58.49;99347.16;1676004;84;21655;-77
2021/05/01 07:53:31;;;;;;;7.40;4.30;;;;;;;17.72;57.13;99350.08;1677137;84;21194;-78
2021/05/01 07:56:00;;;;;;;6.10;4.42;;;;;;;17.82;54.95;99350.84;1680071;84;21188;-77
2021/05/01 07:58:28;;;;;;;6.80;4.30;;;;;;;17.87;52.90;99360.27;1678247;84;21624;-78
2021/05/01 08:00:55;;;;;;;7.65;4.65;;;;;;;17.91;52.96;99356.16;1683482;84;21232;-79
2021/05/01 08:03:22;;;;;;;7.90;6.15;;;;;;;17.96;51.42;99357.20;1680109;84;21640;-77
2021/05/01 08:05:50;;;;;;;9.30;5.95;;;;;;;18.04;52.24;99357.31;1680745;84;21578;-79
2021/05/01 08:08:18;;;;;;;6.95;5.55;;;;;;;18.12;53.29;99357.05;1682931;84;21120;-78
2021/05/01 08:10:46;;;;;;;8.40;5.80;;;;;;;18.20;52.34;99355.80;1681511;84;22530;-80
2021/05/01 08:13:13;;;;;;;10.70;6.17;;;;;;;18.28;51.39;99354.72;1680678;84;21170;-77
2021/05/01 08:15:42;;;;;;;8.48;5.37;;;;;;;18.34;52.15;99351.80;1675420;84;21157;-78
2021/05/01 08:18:09;;;;;;;7.83;5.53;;;;;;;18.42;50.10;99354.12;1653612;86;21134;-78
2021/05/01 08:20:37;;;;;;;8.60;5.45;;;;;;;18.51;49.59;99350.23;1655592;86;21584;-79
2021/05/01 08:23:04;;;;;;;6.90;5.30;;;;;;;18.57;48.91;99349.53;1678626;84;22758;-78
2021/05/01 08:25:32;;;;;;;9.40;5.08;;;;;;;18.63;49.34;99356.95;1682580;84;21624;-78
2021/05/01 08:27:59;;;;;;;10.90;4.12;;;;;;;18.73;48.29;99365.27;1680157;84;21136;-77
2021/05/01 08:30:27;;;;;;;7.12;4.03;;;;;;;18.85;47.47;99366.39;1681661;84;21615;-79
2021/05/01 08:32:54;;;;;;;5.47;3.58;;;;;;;18.98;45.39;99373.94;1683118;84;22031;-79
2021/05/01 08:35:23;;;;;;;5.35;3.72;;;;;;;19.05;44.33;99376.59;1649965;86;21222;-78
2021/05/01 08:37:52;;;;;;;7.83;4.35;;;;;;;19.09;43.17;99376.02;1682651;84;21258;-80
2021/05/01 08:40:19;;;;;;;6.35;4.10;;;;;;;19.12;43.24;99375.31;1680074;84;21138;-78
2021/05/01 08:42:48;;;;;;;5.53;3.40;;;;;;;19.14;41.47;99378.50;1681231;84;21566;-80
2021/05/01 08:45:18;;;;;;;6.37;3.87;;;;;;;19.15;42.03;99373.14;1683094;84;21663;-80
2021/05/01 08:47:48;;;;;;;5.55;3.87;;;;;;;19.17;41.87;99374.97;1681192;84;21192;-78
2021/05/01 08:50:34;;;;;;;5.20;3.55;;;;;;;19.25;42.24;99370.83;1679666;83;21151;-77
2021/05/01 08:53:02;;;;;;;8.80;4.00;;;;;;;19.31;41.82;99377.70;1680100;84;21160;-79
2021/05/01 08:58:14;;;;;;;7.85;3.33;;;;;;;19.54;41.01;99366.34;1816895;77;22669;-76
2021/05/01 09:00:44;;;;;;;5.90;3.10;;;;;;;19.57;39.11;99375.34;1814880;78;21133;-75
2021/05/01 09:03:12;;;;;;;4.92;3.05;;;;;;;19.57;39.15;99381.51;1815433;78;21131;-79
2021/05/01 09:05:43;;;;;;;7.37;4.05;;;;;;;19.57;38.41;99383.72;1750727;81;21162;-75
2021/05/01 09:08:13;;;;;;;6.47;3.40;;;;;;;19.61;39.86;99388.53;1759464;81;21157;-76
2021/05/01 09:10:49;;;;;;;5.50;2.85;;;;;;;19.61;39.05;99392.14;1742392;81;21162;-76
2021/05/01 09:13:27;;;;;;;4.78;3.27;;;;;;;19.60;39.36;99386.35;1756203;81;21621;-76
2021/05/01 09:16:09;;;;;;;3.90;2.65;;;;;;;19.67;39.39;99385.00;1758163;80;21203;-79
2021/05/01 09:21:39;;;;;;;4.90;2.58;;;;;;;19.69;39.99;99381.23;1857333;75;22760;-77
2021/05/01 09:24:08;;;;;;;7.70;4.67;;;;;;;19.65;38.74;99381.00;1851145;77;21654;-82
2021/05/01 09:26:42;;;;;;;6.80;3.67;;;;;;;19.61;37.89;99373.97;1792440;77;21806;-82
2021/05/01 09:29:12;;;;;;;4.08;2.98;;;;;;;19.57;36.65;99372.55;1780717;80;20960;-79
2021/05/01 09:31:42;;;;;;;5.65;3.10;;;;;;;19.52;38.22;99373.48;1781878;80;21126;-82
2021/05/01 09:34:10;;;;;;;3.90;2.83;;;;;;;19.55;38.38;99376.31;1806807;78;21090;-80
2021/05/01 09:36:39;;;;;;;8.20;3.52;;;;;;;19.58;39.55;99374.75;1810453;78;21211;-75
2021/05/01 09:39:32;;;;;;;4.70;3.40;;;;;;;19.63;39.52;99379.17;1809005;78;21804;-76
2021/05/01 09:42:15;;;;;;;8.48;3.50;;;;;;;19.66;37.78;99370.02;1730026;82;21226;-77
2021/05/01 09:45:35;;;;;;;45.28;30.25;;;;;;;19.63;38.88;99376.37;1698052;83;21660;-74
2021/05/01 09:48:28;;;;;;;4.03;3.15;;;;;;;19.63;36.38;99373.00;1910223;73;22668;-74
2021/05/01 09:51:05;;;;;;;12.20;3.77;;;;;;;19.57;35.90;99368.94;1852807;74;21174;-73
2021/05/01 09:53:33;;;;;;;4.87;3.40;;;;;;;19.55;37.12;99367.14;1862636;75;22210;-72
2021/05/01 09:56:05;;;;;;;6.95;2.67;;;;;;;19.60;36.89;99367.38;1866755;74;21130;-74
2021/05/01 09:58:35;;;;;;;24.15;18.25;;;;;;;19.68;38.33;99364.27;1806459;77;21164;-75
2021/05/01 10:01:12;;;;;;;5.47;2.70;;;;;;;19.77;37.71;99365.92;1799092;78;21613;-76
2021/05/01 10:03:40;;;;;;;4.25;2.55;;;;;;;19.88;38.00;99358.42;1790483;77;21144;-75
2021/05/01 10:06:15;;;;;;;3.90;2.52;;;;;;;20.04;38.11;99362.95;1792820;77;21796;-76
2021/05/01 10:08:53;;;;;;;6.70;2.75;;;;;;;20.16;38.08;99359.82;1777237;77;21127;-74
2021/05/01 10:11:27;;;;;;;7.60;2.72;;;;;;;20.26;37.02;99360.29;1837043;75;21243;-74
2021/05/01 10:13:54;;;;;;;;;;;;;;;20.35;36.63;99364.92;1861518;75;21119;-75
2021/05/01 10:16:23;;;;;;;7.97;2.90;;;;;;;20.37;35.66;99367.36;1863185;76;20247;-74
2021/05/01 10:19:12;;;;;;;5.33;3.12;;;;;;;20.36;36.34;99365.15;1863840;76;21390;-75
2021/05/01 10:21:41;;;;;;;3.33;2.98;;;;;;;20.40;35.20;99361.75;1867388;75;21580;-73
2021/05/01 10:24:10;;;;;;;5.72;3.08;;;;;;;20.32;34.44;99354.52;1878531;75;21117;-74
2021/05/01 10:26:49;;;;;;;5.22;2.92;;;;;;;20.28;34.24;99352.31;1801195;79;21099;-74
2021/05/01 10:29:32;;;;;;;4.95;3.27;;;;;;;20.24;35.81;99362.08;1839431;76;21119;-72
2021/05/01 10:31:58;;;;;;;12.07;3.62;;;;;;;20.28;33.68;99360.70;1841382;76;22108;-74
2021/05/01 10:34:27;;;;;;;21.42;3.42;;;;;;;20.25;35.34;99350.31;1862916;75;21167;-76
2021/05/01 10:36:59;;;;;;;6.53;2.85;;;;;;;20.30;36.55;99356.93;1855968;75;21154;-74
2021/05/01 10:39:27;;;;;;;3.15;1.90;;;;;;;20.39;36.42;99361.56;1852469;76;21707;-75
2021/05/01 10:42:00;;;;;;;11.38;3.47;;;;;;;20.54;35.58;99363.02;1822578;76;21161;-75
2021/05/01 10:44:28;;;;;;;5.53;2.77;;;;;;;20.72;32.94;99370.12;1867425;76;21595;-76
2021/05/01 10:47:10;;;;;;;4.08;2.30;;;;;;;20.80;32.50;99366.73;1871572;76;21177;-74
2021/05/01 10:49:39;;;;;;;3.42;2.67;;;;;;;20.76;33.20;99365.94;1865670;76;21725;-74
2021/05/01 10:52:18;;;;;;;5.10;2.60;;;;;;;20.79;34.88;99366.55;1871012;76;21571;-74
2021/05/01 10:55:00;;;;;;;6.15;2.75;;;;;;;20.91;34.78;99363.37;1865853;76;21500;-73
2021/05/01 10:57:28;;;;;;;3.52;2.00;;;;;;;21.00;33.48;99353.84;1864614;76;21361;-73
2021/05/01 11:00:09;;;;;;;6.80;2.85;;;;;;;21.06;33.08;99355.05;1796836;77;21207;-73
2021/05/01 11:02:40;;;;;;;4.58;3.10;;;;;;;21.15;33.62;99348.45;1870145;74;21105;-75
2021/05/01 11:05:10;;;;;;;5.10;3.15;;;;;;;21.15;33.21;99348.45;1858354;76;21098;-74
2021/05/01 11:07:52;;;;;;;9.78;4.92;;;;;;;21.02;32.40;99345.24;1863812;76;21157;-76
2021/05/01 11:10:20;;;;;;;4.85;3.10;;;;;;;20.99;33.90;99338.23;1864944;75;22323;-75
2021/05/01 11:12:52;;;;;;;2.72;2.37;;;;;;;21.09;34.60;99336.05;1863915;76;21142;-73
2021/05/01 11:15:23;;;;;;;5.35;2.52;;;;;;;21.18;35.09;99346.06;1836732;76;21114;-75
2021/05/01 11:18:01;;;;;;;7.30;3.12;;;;;;;21.32;34.53;99339.70;1865625;76;21106;-74
2021/05/01 11:20:29;;;;;;;6.55;2.17;;;;;;;21.42;33.39;99344.52;1864237;76;21059;-74
2021/05/01 11:22:56;;;;;;;3.15;2.17;;;;;;;21.40;33.87;99342.11;1792954;79;21362;-74
2021/05/01 11:25:23;;;;;;;2.50;2.20;;;;;;;21.44;34.14;99331.50;1819170;77;21141;-74
2021/05/01 11:27:52;;;;;;;4.45;2.90;;;;;;;21.46;33.66;99337.52;1838929;76;21549;-73
2021/05/01 11:30:27;;;;;;;3.58;2.60;;;;;;;21.38;34.06;99329.09;1785707;79;21103;-73
2021/05/01 11:32:54;;;;;;;4.47;2.62;;;;;;;21.31;34.31;99329.08;1825288;77;21540;-74
2021/05/01 11:35:25;;;;;;;5.85;2.98;;;;;;;21.30;33.66;99327.48;1789373;79;21399;-74
2021/05/01 11:37:56;;;;;;;3.45;2.58;;;;;;;21.32;32.49;99322.89;1856912;76;21066;-74
2021/05/01 11:40:26;;;;;;;6.85;2.50;;;;;;;21.30;33.20;99321.89;1856565;76;21086;-73
2021/05/01 11:42:56;;;;;;;5.47;3.20;;;;;;;21.35;33.98;99320.09;1841955;76;21143;-75